sensor_id;sensor_type;location;lat;lon;timestamp;temperature;humidity
7530;DHT22;3806;52.270;10.544;2024-03-06T00:00:00;6.00;99.90
7530;DHT22;3806;52.270;10.544;2024-03-06T00:02:25;6.00;99.90
7530;DHT22;3806;52.270;10.544;2024-03-06T00:04:51;6.00;99.90
7530;DHT22;3806;52.270;10.544;2024-03-06T00:07:17;6.00;99.90
7530;DHT22;3806;52.270;10.544;2024-03-06T00:09:42;6.00;99.90
7530;DHT22;3806;52.270;10.544;2024-03-06T00:12:08;6.00;99.80
7530;DHT22;3806;52.270;10.544;2024-03-06T00:14:33;6.00;99.90
7530;DHT22;3806;52.270;10.544;2024-03-06T00:17:02;6.00;99.90
7530;DHT22;3806;52.270;10.544;2024-03-06T00:19:29;6.00;99.90
7530;DHT22;3806;52.270;10.544;2024-03-06T00:21:55;6.00;99.90
7530;DHT22;3806;52.270;10.544;2024-03-06T00:24:20;6.10;99.90
7530;DHT22;3806;52.270;10.544;2024-03-06T00:26:46;6.10;99.90
7530;DHT22;3806;52.270;10.544;2024-03-06T00:29:12;6.10;99.90
7530;DHT22;3806;52.270;10.544;2024-03-06T00:31:43;6.20;99.90
7530;DHT22;3806;52.270;10.544;2024-03-06T00:34:12;6.20;99.90
7530;DHT22;3806;52.270;10.544;2024-03-06T00:36:39;6.10;99.90
7530;DHT22;3806;52.270;10.544;2024-03-06T00:39:05;6.10;99.90
7530;DHT22;3806;52.270;10.544;2024-03-06T00:41:31;6.00;99.90
7530;DHT22;3806;52.270;10.544;2024-03-06T00:43:57;6.00;99.90
7530;DHT22;3806;52.270;10.544;2024-03-06T00:46:22;6.00;99.90
7530;DHT22;3806;52.270;10.544;2024-03-06T00:48:48;6.00;99.90
7530;DHT22;3806;52.270;10.544;2024-03-06T00:51:13;6.00;99.90
7530;DHT22;3806;52.270;10.544;2024-03-06T00:53:39;6.00;99.90
7530;DHT22;3806;52.270;10.544;2024-03-06T00:56:07;6.00;99.90
7530;DHT22;3806;52.270;10.544;2024-03-06T00:58:32;6.00;99.90
7530;DHT22;3806;52.270;10.544;2024-03-06T01:00:58;6.00;99.90
7530;DHT22;3806;52.270;10.544;2024-03-06T01:03:24;6.10;99.90
7530;DHT22;3806;52.270;10.544;2024-03-06T01:05:49;6.00;99.90
7530;DHT22;3806;52.270;10.544;2024-03-06T01:08:16;6.00;99.90
7530;DHT22;3806;52.270;10.544;2024-03-06T01:10:43;6.00;99.90
7530;DHT22;3806;52.270;10.544;2024-03-06T01:13:08;6.00;99.90
7530;DHT22;3806;52.270;10.544;2024-03-06T01:15:36;6.00;99.90
7530;DHT22;3806;52.270;10.544;2024-03-06T01:18:02;6.00;99.90
7530;DHT22;3806;52.270;10.544;2024-03-06T01:20:29;5.90;99.90
7530;DHT22;3806;52.270;10.544;2024-03-06T01:22:54;5.90;99.90
7530;DHT22;3806;52.270;10.544;2024-03-06T01:25:20;5.90;99.90
7530;DHT22;3806;52.270;10.544;2024-03-06T01:27:47;5.90;99.90
7530;DHT22;3806;52.270;10.544;2024-03-06T01:30:13;5.90;99.90
7530;DHT22;3806;52.270;10.544;2024-03-06T01:32:38;5.80;99.90
7530;DHT22;3806;52.270;10.544;2024-03-06T01:35:04;5.90;99.90
7530;DHT22;3806;52.270;10.544;2024-03-06T01:37:30;5.90;99.90
7530;DHT22;3806;52.270;10.544;2024-03-06T01:39:56;5.90;99.90
7530;DHT22;3806;52.270;10.544;2024-03-06T01:42:21;5.90;99.90
7530;DHT22;3806;52.270;10.544;2024-03-06T01:44:47;5.90;99.90
7530;DHT22;3806;52.270;10.544;2024-03-06T01:47:12;5.90;99.90
7530;DHT22;3806;52.270;10.544;2024-03-06T01:49:38;5.90;99.90
7530;DHT22;3806;52.270;10.544;2024-03-06T01:52:03;5.90;99.90
7530;DHT22;3806;52.270;10.544;2024-03-06T01:54:29;5.90;99.90
7530;DHT22;3806;52.270;10.544;2024-03-06T01:56:56;5.90;99.90
7530;DHT22;3806;52.270;10.544;2024-03-06T01:59:25;5.90;99.90
7530;DHT22;3806;52.270;10.544;2024-03-06T02:01:52;5.90;99.90
7530;DHT22;3806;52.270;10.544;2024-03-06T02:04:19;5.90;99.90
7530;DHT22;3806;52.270;10.544;2024-03-06T02:06:44;5.90;99.90
7530;DHT22;3806;52.270;10.544;2024-03-06T02:09:12;5.90;99.90
7530;DHT22;3806;52.270;10.544;2024-03-06T02:11:39;5.90;99.90
7530;DHT22;3806;52.270;10.544;2024-03-06T02:14:05;5.90;99.90
7530;DHT22;3806;52.270;10.544;2024-03-06T02:16:35;5.90;99.90
7530;DHT22;3806;52.270;10.544;2024-03-06T02:19:00;5.90;99.90
7530;DHT22;3806;52.270;10.544;2024-03-06T02:21:26;5.90;99.90
7530;DHT22;3806;52.270;10.544;2024-03-06T02:23:51;5.90;99.90
7530;DHT22;3806;52.270;10.544;2024-03-06T02:26:18;5.90;99.90
7530;DHT22;3806;52.270;10.544;2024-03-06T02:28:51;5.90;99.90
7530;DHT22;3806;52.270;10.544;2024-03-06T02:31:17;5.90;99.90
7530;DHT22;3806;52.270;10.544;2024-03-06T02:33:43;5.90;99.90
7530;DHT22;3806;52.270;10.544;2024-03-06T02:36:16;5.90;99.90
7530;DHT22;3806;52.270;10.544;2024-03-06T02:38:42;5.90;99.90
7530;DHT22;3806;52.270;10.544;2024-03-06T02:41:08;5.90;99.90
7530;DHT22;3806;52.270;10.544;2024-03-06T02:43:34;5.90;99.90
7530;DHT22;3806;52.270;10.544;2024-03-06T02:45:59;5.90;99.90
7530;DHT22;3806;52.270;10.544;2024-03-06T02:48:25;5.90;99.90
7530;DHT22;3806;52.270;10.544;2024-03-06T02:50:51;5.90;99.90
7530;DHT22;3806;52.270;10.544;2024-03-06T02:53:17;5.80;99.90
7530;DHT22;3806;52.270;10.544;2024-03-06T02:55:42;5.90;99.90
7530;DHT22;3806;52.270;10.544;2024-03-06T02:58:08;5.80;99.90
7530;DHT22;3806;52.270;10.544;2024-03-06T03:00:33;5.80;99.90
7530;DHT22;3806;52.270;10.544;2024-03-06T03:02:59;5.80;99.90
7530;DHT22;3806;52.270;10.544;2024-03-06T03:05:24;5.80;99.90
7530;DHT22;3806;52.270;10.544;2024-03-06T03:07:50;5.90;99.90
7530;DHT22;3806;52.270;10.544;2024-03-06T03:10:16;5.90;99.90
7530;DHT22;3806;52.270;10.544;2024-03-06T03:12:42;5.90;99.90
7530;DHT22;3806;52.270;10.544;2024-03-06T03:15:09;5.90;99.90
7530;DHT22;3806;52.270;10.544;2024-03-06T03:17:34;5.90;99.90
7530;DHT22;3806;52.270;10.544;2024-03-06T03:20:00;5.90;99.90
7530;DHT22;3806;52.270;10.544;2024-03-06T03:22:28;5.80;99.90
7530;DHT22;3806;52.270;10.544;2024-03-06T03:24:53;5.80;99.90
7530;DHT22;3806;52.270;10.544;2024-03-06T03:27:18;5.70;99.90
7530;DHT22;3806;52.270;10.544;2024-03-06T03:29:44;5.70;99.90
7530;DHT22;3806;52.270;10.544;2024-03-06T03:32:09;5.70;99.90
7530;DHT22;3806;52.270;10.544;2024-03-06T03:34:35;5.70;99.90
7530;DHT22;3806;52.270;10.544;2024-03-06T03:37:01;5.70;99.90
7530;DHT22;3806;52.270;10.544;2024-03-06T03:39:26;5.70;99.90
7530;DHT22;3806;52.270;10.544;2024-03-06T03:41:52;5.70;99.90
7530;DHT22;3806;52.270;10.544;2024-03-06T03:44:18;5.70;99.90
7530;DHT22;3806;52.270;10.544;2024-03-06T03:46:45;5.70;99.90
7530;DHT22;3806;52.270;10.544;2024-03-06T03:49:11;5.70;99.90
7530;DHT22;3806;52.270;10.544;2024-03-06T03:51:38;5.70;99.90
7530;DHT22;3806;52.270;10.544;2024-03-06T03:54:04;5.70;99.90
7530;DHT22;3806;52.270;10.544;2024-03-06T03:56:30;5.70;99.90
7530;DHT22;3806;52.270;10.544;2024-03-06T03:58:56;5.60;99.90
7530;DHT22;3806;52.270;10.544;2024-03-06T04:01:22;5.60;99.90
7530;DHT22;3806;52.270;10.544;2024-03-06T04:03:48;5.60;99.90
7530;DHT22;3806;52.270;10.544;2024-03-06T04:06:14;5.60;99.90
7530;DHT22;3806;52.270;10.544;2024-03-06T04:08:39;5.60;99.90
7530;DHT22;3806;52.270;10.544;2024-03-06T04:11:05;5.60;99.90
7530;DHT22;3806;52.270;10.544;2024-03-06T04:13:30;5.60;99.90
7530;DHT22;3806;52.270;10.544;2024-03-06T04:16:00;5.70;99.90
7530;DHT22;3806;52.270;10.544;2024-03-06T04:18:28;5.70;99.90
7530;DHT22;3806;52.270;10.544;2024-03-06T04:20:54;5.60;99.90
7530;DHT22;3806;52.270;10.544;2024-03-06T04:23:19;5.70;99.90
7530;DHT22;3806;52.270;10.544;2024-03-06T04:25:45;5.70;99.90
7530;DHT22;3806;52.270;10.544;2024-03-06T04:28:10;5.80;99.90
7530;DHT22;3806;52.270;10.544;2024-03-06T04:30:36;5.80;99.90
7530;DHT22;3806;52.270;10.544;2024-03-06T04:33:01;5.80;99.90
7530;DHT22;3806;52.270;10.544;2024-03-06T04:35:27;5.80;99.90
7530;DHT22;3806;52.270;10.544;2024-03-06T04:37:53;5.80;99.90
7530;DHT22;3806;52.270;10.544;2024-03-06T04:40:18;5.70;99.90
7530;DHT22;3806;52.270;10.544;2024-03-06T04:42:47;5.70;99.90
7530;DHT22;3806;52.270;10.544;2024-03-06T04:45:15;5.70;99.90
7530;DHT22;3806;52.270;10.544;2024-03-06T04:47:41;5.70;99.90
7530;DHT22;3806;52.270;10.544;2024-03-06T04:50:10;5.60;99.90
7530;DHT22;3806;52.270;10.544;2024-03-06T04:52:37;5.60;99.90
7530;DHT22;3806;52.270;10.544;2024-03-06T04:55:03;5.60;99.90
7530;DHT22;3806;52.270;10.544;2024-03-06T04:57:29;5.60;99.90
7530;DHT22;3806;52.270;10.544;2024-03-06T04:59:54;5.50;99.90
7530;DHT22;3806;52.270;10.544;2024-03-06T05:02:20;5.50;99.90
7530;DHT22;3806;52.270;10.544;2024-03-06T05:04:45;5.50;99.90
7530;DHT22;3806;52.270;10.544;2024-03-06T05:07:12;5.50;99.90
7530;DHT22;3806;52.270;10.544;2024-03-06T05:09:38;5.40;99.90
7530;DHT22;3806;52.270;10.544;2024-03-06T05:12:06;5.40;99.90
7530;DHT22;3806;52.270;10.544;2024-03-06T05:14:31;5.40;99.90
7530;DHT22;3806;52.270;10.544;2024-03-06T05:16:57;5.40;99.90
7530;DHT22;3806;52.270;10.544;2024-03-06T05:19:22;5.50;99.90
7530;DHT22;3806;52.270;10.544;2024-03-06T05:21:48;5.50;99.90
7530;DHT22;3806;52.270;10.544;2024-03-06T05:24:13;5.40;99.90
7530;DHT22;3806;52.270;10.544;2024-03-06T05:26:39;5.40;99.90
7530;DHT22;3806;52.270;10.544;2024-03-06T05:29:05;5.30;99.90
7530;DHT22;3806;52.270;10.544;2024-03-06T05:31:30;5.30;99.90
7530;DHT22;3806;52.270;10.544;2024-03-06T05:33:57;5.30;99.90
7530;DHT22;3806;52.270;10.544;2024-03-06T05:36:23;5.30;99.90
7530;DHT22;3806;52.270;10.544;2024-03-06T05:38:48;5.30;99.90
7530;DHT22;3806;52.270;10.544;2024-03-06T05:41:15;5.30;99.90
7530;DHT22;3806;52.270;10.544;2024-03-06T05:43:43;5.30;99.90
7530;DHT22;3806;52.270;10.544;2024-03-06T05:46:08;5.30;99.90
7530;DHT22;3806;52.270;10.544;2024-03-06T05:48:34;5.40;99.90
7530;DHT22;3806;52.270;10.544;2024-03-06T05:50:59;5.40;99.90
7530;DHT22;3806;52.270;10.544;2024-03-06T05:53:25;5.40;99.90
7530;DHT22;3806;52.270;10.544;2024-03-06T05:55:52;5.40;99.90
7530;DHT22;3806;52.270;10.544;2024-03-06T05:58:18;5.40;99.90
7530;DHT22;3806;52.270;10.544;2024-03-06T06:00:43;5.40;99.90
7530;DHT22;3806;52.270;10.544;2024-03-06T06:03:09;5.40;99.90
7530;DHT22;3806;52.270;10.544;2024-03-06T06:05:38;5.40;99.90
7530;DHT22;3806;52.270;10.544;2024-03-06T06:08:05;5.40;99.90
7530;DHT22;3806;52.270;10.544;2024-03-06T06:10:30;5.40;99.90
7530;DHT22;3806;52.270;10.544;2024-03-06T06:12:56;5.40;99.90
7530;DHT22;3806;52.270;10.544;2024-03-06T06:15:22;5.30;99.90
7530;DHT22;3806;52.270;10.544;2024-03-06T06:17:48;5.40;99.90
7530;DHT22;3806;52.270;10.544;2024-03-06T06:20:13;5.40;99.90
7530;DHT22;3806;52.270;10.544;2024-03-06T06:22:41;5.40;99.90
7530;DHT22;3806;52.270;10.544;2024-03-06T06:25:07;5.40;99.90
7530;DHT22;3806;52.270;10.544;2024-03-06T06:27:33;5.40;99.90
7530;DHT22;3806;52.270;10.544;2024-03-06T06:29:58;5.50;99.90
7530;DHT22;3806;52.270;10.544;2024-03-06T06:32:24;5.60;99.90
7530;DHT22;3806;52.270;10.544;2024-03-06T06:34:49;5.60;99.90
7530;DHT22;3806;52.270;10.544;2024-03-06T06:37:15;5.60;99.90
7530;DHT22;3806;52.270;10.544;2024-03-06T06:39:41;5.60;99.90
7530;DHT22;3806;52.270;10.544;2024-03-06T06:42:06;5.80;99.90
7530;DHT22;3806;52.270;10.544;2024-03-06T06:44:32;5.90;99.90
7530;DHT22;3806;52.270;10.544;2024-03-06T06:46:57;6.30;99.90
7530;DHT22;3806;52.270;10.544;2024-03-06T06:49:23;6.90;99.90
7530;DHT22;3806;52.270;10.544;2024-03-06T06:51:49;7.50;99.90
7530;DHT22;3806;52.270;10.544;2024-03-06T06:54:14;7.90;99.50
7530;DHT22;3806;52.270;10.544;2024-03-06T06:56:40;7.80;98.80
7530;DHT22;3806;52.270;10.544;2024-03-06T06:59:05;7.60;98.80
7530;DHT22;3806;52.270;10.544;2024-03-06T07:01:31;7.30;99.00
7530;DHT22;3806;52.270;10.544;2024-03-06T07:03:59;7.20;99.40
7530;DHT22;3806;52.270;10.544;2024-03-06T07:06:24;7.10;99.70
7530;DHT22;3806;52.270;10.544;2024-03-06T07:08:50;7.00;99.70
7530;DHT22;3806;52.270;10.544;2024-03-06T07:11:17;7.00;99.80
7530;DHT22;3806;52.270;10.544;2024-03-06T07:13:43;6.80;99.90
7530;DHT22;3806;52.270;10.544;2024-03-06T07:16:09;6.80;99.90
7530;DHT22;3806;52.270;10.544;2024-03-06T07:18:34;6.80;99.90
7530;DHT22;3806;52.270;10.544;2024-03-06T07:21:00;6.80;99.90
7530;DHT22;3806;52.270;10.544;2024-03-06T07:23:26;6.80;99.90
7530;DHT22;3806;52.270;10.544;2024-03-06T07:25:51;6.80;99.90
7530;DHT22;3806;52.270;10.544;2024-03-06T07:28:17;6.90;99.90
7530;DHT22;3806;52.270;10.544;2024-03-06T07:30:43;6.80;99.90
7530;DHT22;3806;52.270;10.544;2024-03-06T07:33:08;6.90;99.90
7530;DHT22;3806;52.270;10.544;2024-03-06T07:35:34;6.90;99.90
7530;DHT22;3806;52.270;10.544;2024-03-06T07:38:01;6.90;99.90
7530;DHT22;3806;52.270;10.544;2024-03-06T07:40:30;6.90;99.90
7530;DHT22;3806;52.270;10.544;2024-03-06T07:42:56;7.00;99.90
7530;DHT22;3806;52.270;10.544;2024-03-06T07:45:21;7.00;99.90
7530;DHT22;3806;52.270;10.544;2024-03-06T07:47:46;7.00;99.90
7530;DHT22;3806;52.270;10.544;2024-03-06T07:50:13;7.00;99.90
7530;DHT22;3806;52.270;10.544;2024-03-06T07:52:47;7.10;99.90
7530;DHT22;3806;52.270;10.544;2024-03-06T07:55:12;7.20;99.90
7530;DHT22;3806;52.270;10.544;2024-03-06T07:57:38;7.40;99.90
7530;DHT22;3806;52.270;10.544;2024-03-06T08:00:05;7.50;99.90
7530;DHT22;3806;52.270;10.544;2024-03-06T08:02:42;7.60;99.90
7530;DHT22;3806;52.270;10.544;2024-03-06T08:05:15;7.70;99.70
7530;DHT22;3806;52.270;10.544;2024-03-06T08:07:40;7.80;99.40
7530;DHT22;3806;52.270;10.544;2024-03-06T08:10:08;7.80;99.30
7530;DHT22;3806;52.270;10.544;2024-03-06T08:12:34;7.80;99.40
7530;DHT22;3806;52.270;10.544;2024-03-06T08:15:00;8.00;99.50
7530;DHT22;3806;52.270;10.544;2024-03-06T08:17:27;8.10;99.10
7530;DHT22;3806;52.270;10.544;2024-03-06T08:19:52;8.20;98.80
7530;DHT22;3806;52.270;10.544;2024-03-06T08:22:18;8.20;98.90
7530;DHT22;3806;52.270;10.544;2024-03-06T08:24:43;8.30;98.60
7530;DHT22;3806;52.270;10.544;2024-03-06T08:27:09;8.40;98.70
7530;DHT22;3806;52.270;10.544;2024-03-06T08:29:34;8.60;98.80
7530;DHT22;3806;52.270;10.544;2024-03-06T08:31:59;8.70;98.40
7530;DHT22;3806;52.270;10.544;2024-03-06T08:34:26;8.90;98.00
7530;DHT22;3806;52.270;10.544;2024-03-06T08:36:51;8.90;97.40
7530;DHT22;3806;52.270;10.544;2024-03-06T08:39:18;8.80;97.10
7530;DHT22;3806;52.270;10.544;2024-03-06T08:41:44;8.80;97.10
7530;DHT22;3806;52.270;10.544;2024-03-06T08:44:09;8.70;97.10
7530;DHT22;3806;52.270;10.544;2024-03-06T08:46:35;8.60;97.40
7530;DHT22;3806;52.270;10.544;2024-03-06T08:49:00;8.70;97.40
7530;DHT22;3806;52.270;10.544;2024-03-06T08:51:27;8.90;97.50
7530;DHT22;3806;52.270;10.544;2024-03-06T08:53:52;9.10;97.50
7530;DHT22;3806;52.270;10.544;2024-03-06T08:56:17;9.30;97.10
7530;DHT22;3806;52.270;10.544;2024-03-06T08:58:43;9.40;96.60
7530;DHT22;3806;52.270;10.544;2024-03-06T09:01:09;9.40;96.40
7530;DHT22;3806;52.270;10.544;2024-03-06T09:03:35;9.50;96.30
7530;DHT22;3806;52.270;10.544;2024-03-06T09:06:00;9.40;96.10
7530;DHT22;3806;52.270;10.544;2024-03-06T09:08:28;9.60;96.20
7530;DHT22;3806;52.270;10.544;2024-03-06T09:10:53;9.70;96.10
7530;DHT22;3806;52.270;10.544;2024-03-06T09:13:19;9.90;96.00
7530;DHT22;3806;52.270;10.544;2024-03-06T09:15:45;10.00;95.20
7530;DHT22;3806;52.270;10.544;2024-03-06T09:18:10;10.10;94.70
7530;DHT22;3806;52.270;10.544;2024-03-06T09:20:36;10.20;94.50
7530;DHT22;3806;52.270;10.544;2024-03-06T09:23:01;10.30;94.20
7530;DHT22;3806;52.270;10.544;2024-03-06T09:25:27;10.40;94.10
7530;DHT22;3806;52.270;10.544;2024-03-06T09:27:52;10.70;94.00
7530;DHT22;3806;52.270;10.544;2024-03-06T09:30:19;10.80;93.70
7530;DHT22;3806;52.270;10.544;2024-03-06T09:32:44;10.70;93.20
7530;DHT22;3806;52.270;10.544;2024-03-06T09:35:10;10.70;93.00
7530;DHT22;3806;52.270;10.544;2024-03-06T09:37:35;10.80;92.90
7530;DHT22;3806;52.270;10.544;2024-03-06T09:40:01;10.90;92.70
7530;DHT22;3806;52.270;10.544;2024-03-06T09:42:26;11.10;92.80
7530;DHT22;3806;52.270;10.544;2024-03-06T09:44:52;11.30;92.60
7530;DHT22;3806;52.270;10.544;2024-03-06T09:47:21;11.70;91.90
7530;DHT22;3806;52.270;10.544;2024-03-06T09:49:51;11.80;90.20
7530;DHT22;3806;52.270;10.544;2024-03-06T09:52:18;11.90;89.10
7530;DHT22;3806;52.270;10.544;2024-03-06T09:54:44;12.10;88.40
7530;DHT22;3806;52.270;10.544;2024-03-06T09:57:09;12.40;85.60
7530;DHT22;3806;52.270;10.544;2024-03-06T09:59:35;12.60;84.00
7530;DHT22;3806;52.270;10.544;2024-03-06T10:02:02;13.00;81.80
7530;DHT22;3806;52.270;10.544;2024-03-06T10:04:29;13.50;79.90
7530;DHT22;3806;52.270;10.544;2024-03-06T10:06:58;14.30;75.40
7530;DHT22;3806;52.270;10.544;2024-03-06T10:09:25;15.10;69.00
7530;DHT22;3806;52.270;10.544;2024-03-06T10:11:51;15.50;64.80
7530;DHT22;3806;52.270;10.544;2024-03-06T10:14:22;16.00;63.30
7530;DHT22;3806;52.270;10.544;2024-03-06T10:19:22;16.70;57.20
7530;DHT22;3806;52.270;10.544;2024-03-06T10:21:48;16.50;55.70
7530;DHT22;3806;52.270;10.544;2024-03-06T10:24:25;16.60;55.70
7530;DHT22;3806;52.270;10.544;2024-03-06T10:26:51;16.30;55.30
7530;DHT22;3806;52.270;10.544;2024-03-06T10:29:20;16.10;55.90
7530;DHT22;3806;52.270;10.544;2024-03-06T10:31:52;15.90;56.10
7530;DHT22;3806;52.270;10.544;2024-03-06T10:34:17;16.10;56.30
7530;DHT22;3806;52.270;10.544;2024-03-06T10:36:43;16.40;55.50
7530;DHT22;3806;52.270;10.544;2024-03-06T10:39:11;16.80;54.30
7530;DHT22;3806;52.270;10.544;2024-03-06T10:41:40;17.10;52.90
7530;DHT22;3806;52.270;10.544;2024-03-06T10:44:12;17.80;53.40
7530;DHT22;3806;52.270;10.544;2024-03-06T10:46:44;20.00;50.70
7530;DHT22;3806;52.270;10.544;2024-03-06T10:49:12;22.40;45.10
7530;DHT22;3806;52.270;10.544;2024-03-06T10:51:40;24.30;38.00
7530;DHT22;3806;52.270;10.544;2024-03-06T10:54:09;24.70;34.30
7530;DHT22;3806;52.270;10.544;2024-03-06T10:56:40;24.40;32.60
7530;DHT22;3806;52.270;10.544;2024-03-06T10:59:12;23.50;31.60
7530;DHT22;3806;52.270;10.544;2024-03-06T11:01:39;22.10;32.80
7530;DHT22;3806;52.270;10.544;2024-03-06T11:04:06;21.20;34.20
7530;DHT22;3806;52.270;10.544;2024-03-06T11:06:33;20.60;35.50
7530;DHT22;3806;52.270;10.544;2024-03-06T11:09:00;20.70;36.00
7530;DHT22;3806;52.270;10.544;2024-03-06T11:11:25;20.90;35.70
7530;DHT22;3806;52.270;10.544;2024-03-06T11:13:55;21.30;35.00
7530;DHT22;3806;52.270;10.544;2024-03-06T11:16:32;21.80;34.00
7530;DHT22;3806;52.270;10.544;2024-03-06T11:19:17;21.90;34.00
7530;DHT22;3806;52.270;10.544;2024-03-06T11:21:46;21.90;34.00
7530;DHT22;3806;52.270;10.544;2024-03-06T11:24:17;22.90;33.00
7530;DHT22;3806;52.270;10.544;2024-03-06T11:26:56;24.40;31.50
7530;DHT22;3806;52.270;10.544;2024-03-06T11:29:23;25.20;29.30
7530;DHT22;3806;52.270;10.544;2024-03-06T11:32:06;26.20;28.40
7530;DHT22;3806;52.270;10.544;2024-03-06T11:34:33;27.30;27.30
7530;DHT22;3806;52.270;10.544;2024-03-06T11:37:02;28.20;26.10
7530;DHT22;3806;52.270;10.544;2024-03-06T11:39:33;28.90;25.30
7530;DHT22;3806;52.270;10.544;2024-03-06T11:41:59;29.50;24.20
7530;DHT22;3806;52.270;10.544;2024-03-06T11:44:26;29.80;23.60
7530;DHT22;3806;52.270;10.544;2024-03-06T11:47:01;29.90;22.60
7530;DHT22;3806;52.270;10.544;2024-03-06T11:49:31;29.70;22.80
7530;DHT22;3806;52.270;10.544;2024-03-06T11:52:06;29.20;22.60
7530;DHT22;3806;52.270;10.544;2024-03-06T11:54:33;28.40;23.10
7530;DHT22;3806;52.270;10.544;2024-03-06T11:57:01;27.10;23.50
7530;DHT22;3806;52.270;10.544;2024-03-06T11:59:32;25.20;24.50
7530;DHT22;3806;52.270;10.544;2024-03-06T12:02:00;23.00;25.80
7530;DHT22;3806;52.270;10.544;2024-03-06T12:04:30;21.20;27.50
7530;DHT22;3806;52.270;10.544;2024-03-06T12:07:00;19.70;28.90
7530;DHT22;3806;52.270;10.544;2024-03-06T12:09:26;18.50;30.20
7530;DHT22;3806;52.270;10.544;2024-03-06T12:11:52;17.40;31.40
7530;DHT22;3806;52.270;10.544;2024-03-06T12:14:19;16.60;32.80
7530;DHT22;3806;52.270;10.544;2024-03-06T12:16:58;16.10;34.20
7530;DHT22;3806;52.270;10.544;2024-03-06T12:19:26;15.70;35.00
7530;DHT22;3806;52.270;10.544;2024-03-06T12:21:52;15.30;35.70
7530;DHT22;3806;52.270;10.544;2024-03-06T12:24:19;14.90;36.40
7530;DHT22;3806;52.270;10.544;2024-03-06T12:26:44;14.50;37.00
7530;DHT22;3806;52.270;10.544;2024-03-06T12:29:11;14.30;38.00
7530;DHT22;3806;52.270;10.544;2024-03-06T12:31:38;14.30;38.20
7530;DHT22;3806;52.270;10.544;2024-03-06T12:34:07;14.30;38.50
7530;DHT22;3806;52.270;10.544;2024-03-06T12:36:33;14.40;38.80
7530;DHT22;3806;52.270;10.544;2024-03-06T12:39:01;14.70;38.80
7530;DHT22;3806;52.270;10.544;2024-03-06T12:41:27;15.10;38.80
7530;DHT22;3806;52.270;10.544;2024-03-06T12:43:54;15.60;38.30
7530;DHT22;3806;52.270;10.544;2024-03-06T12:46:21;16.10;37.90
7530;DHT22;3806;52.270;10.544;2024-03-06T12:48:46;16.80;37.10
7530;DHT22;3806;52.270;10.544;2024-03-06T12:51:12;17.60;35.90
7530;DHT22;3806;52.270;10.544;2024-03-06T12:53:38;18.60;34.90
7530;DHT22;3806;52.270;10.544;2024-03-06T12:56:04;19.60;33.40
7530;DHT22;3806;52.270;10.544;2024-03-06T12:58:30;20.50;32.10
7530;DHT22;3806;52.270;10.544;2024-03-06T13:01:00;20.90;29.80
7530;DHT22;3806;52.270;10.544;2024-03-06T13:03:27;21.30;30.00
7530;DHT22;3806;52.270;10.544;2024-03-06T13:05:52;21.90;29.60
7530;DHT22;3806;52.270;10.544;2024-03-06T13:08:18;22.40;28.90
7530;DHT22;3806;52.270;10.544;2024-03-06T13:10:43;22.90;28.50
7530;DHT22;3806;52.270;10.544;2024-03-06T13:13:10;23.40;28.00
7530;DHT22;3806;52.270;10.544;2024-03-06T13:15:36;23.50;27.50
7530;DHT22;3806;52.270;10.544;2024-03-06T13:18:04;23.50;27.40
7530;DHT22;3806;52.270;10.544;2024-03-06T13:20:30;23.50;27.40
7530;DHT22;3806;52.270;10.544;2024-03-06T13:22:56;23.40;27.00
7530;DHT22;3806;52.270;10.544;2024-03-06T13:25:21;23.00;27.20
7530;DHT22;3806;52.270;10.544;2024-03-06T13:27:47;22.80;27.60
7530;DHT22;3806;52.270;10.544;2024-03-06T13:30:13;22.60;27.20
7530;DHT22;3806;52.270;10.544;2024-03-06T13:32:38;22.20;27.70
7530;DHT22;3806;52.270;10.544;2024-03-06T13:35:05;21.90;27.90
7530;DHT22;3806;52.270;10.544;2024-03-06T13:37:38;21.60;28.00
7530;DHT22;3806;52.270;10.544;2024-03-06T13:40:06;21.30;28.40
7530;DHT22;3806;52.270;10.544;2024-03-06T13:42:32;21.20;28.50
7530;DHT22;3806;52.270;10.544;2024-03-06T13:44:59;21.00;28.90
7530;DHT22;3806;52.270;10.544;2024-03-06T13:47:24;20.60;29.10
7530;DHT22;3806;52.270;10.544;2024-03-06T13:49:52;20.00;29.90
7530;DHT22;3806;52.270;10.544;2024-03-06T13:52:17;19.90;30.40
7530;DHT22;3806;52.270;10.544;2024-03-06T13:54:47;19.60;29.90
7530;DHT22;3806;52.270;10.544;2024-03-06T13:57:16;18.90;30.50
7530;DHT22;3806;52.270;10.544;2024-03-06T13:59:41;18.30;31.50
7530;DHT22;3806;52.270;10.544;2024-03-06T14:02:07;18.20;32.20
7530;DHT22;3806;52.270;10.544;2024-03-06T14:04:34;18.20;32.30
7530;DHT22;3806;52.270;10.544;2024-03-06T14:07:01;17.90;32.60
7530;DHT22;3806;52.270;10.544;2024-03-06T14:09:27;17.80;33.00
7530;DHT22;3806;52.270;10.544;2024-03-06T14:11:53;17.80;32.80
7530;DHT22;3806;52.270;10.544;2024-03-06T14:14:19;17.80;32.90
7530;DHT22;3806;52.270;10.544;2024-03-06T14:16:46;17.80;32.90
7530;DHT22;3806;52.270;10.544;2024-03-06T14:19:12;18.00;33.30
7530;DHT22;3806;52.270;10.544;2024-03-06T14:21:37;18.00;33.20
7530;DHT22;3806;52.270;10.544;2024-03-06T14:24:04;18.10;33.10
7530;DHT22;3806;52.270;10.544;2024-03-06T14:26:34;18.00;33.10
7530;DHT22;3806;52.270;10.544;2024-03-06T14:29:01;17.80;33.00
7530;DHT22;3806;52.270;10.544;2024-03-06T14:31:27;17.70;33.30
7530;DHT22;3806;52.270;10.544;2024-03-06T14:33:53;17.50;33.70
7530;DHT22;3806;52.270;10.544;2024-03-06T14:36:19;17.30;34.00
7530;DHT22;3806;52.270;10.544;2024-03-06T14:38:47;17.10;34.10
7530;DHT22;3806;52.270;10.544;2024-03-06T14:41:13;16.80;34.30
7530;DHT22;3806;52.270;10.544;2024-03-06T14:43:38;16.50;34.30
7530;DHT22;3806;52.270;10.544;2024-03-06T14:46:05;16.10;34.80
7530;DHT22;3806;52.270;10.544;2024-03-06T14:48:32;15.50;35.70
7530;DHT22;3806;52.270;10.544;2024-03-06T14:51:02;15.10;36.70
7530;DHT22;3806;52.270;10.544;2024-03-06T14:53:27;14.80;37.60
7530;DHT22;3806;52.270;10.544;2024-03-06T14:55:54;14.60;38.50
7530;DHT22;3806;52.270;10.544;2024-03-06T14:58:19;14.40;38.50
7530;DHT22;3806;52.270;10.544;2024-03-06T15:00:46;14.10;39.10
7530;DHT22;3806;52.270;10.544;2024-03-06T15:03:11;13.90;40.30
7530;DHT22;3806;52.270;10.544;2024-03-06T15:05:38;13.80;40.20
7530;DHT22;3806;52.270;10.544;2024-03-06T15:08:04;13.70;40.70
7530;DHT22;3806;52.270;10.544;2024-03-06T15:10:30;13.60;41.10
7530;DHT22;3806;52.270;10.544;2024-03-06T15:12:59;13.40;41.30
7530;DHT22;3806;52.270;10.544;2024-03-06T15:15:25;13.20;42.00
7530;DHT22;3806;52.270;10.544;2024-03-06T15:17:51;13.00;42.30
7530;DHT22;3806;52.270;10.544;2024-03-06T15:20:16;12.80;42.60
7530;DHT22;3806;52.270;10.544;2024-03-06T15:22:43;12.50;43.20
7530;DHT22;3806;52.270;10.544;2024-03-06T15:25:10;12.30;43.80
7530;DHT22;3806;52.270;10.544;2024-03-06T15:27:40;12.10;44.40
7530;DHT22;3806;52.270;10.544;2024-03-06T15:30:07;11.90;44.80
7530;DHT22;3806;52.270;10.544;2024-03-06T15:32:36;11.80;45.40
7530;DHT22;3806;52.270;10.544;2024-03-06T15:35:02;11.70;45.90
7530;DHT22;3806;52.270;10.544;2024-03-06T15:37:29;11.60;46.30
7530;DHT22;3806;52.270;10.544;2024-03-06T15:39:55;11.50;46.80
7530;DHT22;3806;52.270;10.544;2024-03-06T15:42:22;11.50;47.20
7530;DHT22;3806;52.270;10.544;2024-03-06T15:44:48;11.40;47.60
7530;DHT22;3806;52.270;10.544;2024-03-06T15:47:15;11.30;48.00
7530;DHT22;3806;52.270;10.544;2024-03-06T15:49:42;11.30;48.50
7530;DHT22;3806;52.270;10.544;2024-03-06T15:52:09;11.20;48.90